sensor_id;sensor_type;location;lat;lon;timestamp;temperature;humidity
702;DHT22;334;48.808;9.222;2022-09-23T00:00:28;12.80;1.00
702;DHT22;334;48.808;9.222;2022-09-23T00:01:31;12.80;1.00
702;DHT22;334;48.808;9.222;2022-09-23T00:02:34;12.80;1.00
702;DHT22;334;48.808;9.222;2022-09-23T00:03:38;12.80;1.00
702;DHT22;334;48.808;9.222;2022-09-23T00:04:42;12.70;1.00
702;DHT22;334;48.808;9.222;2022-09-23T00:05:56;12.70;1.00
702;DHT22;334;48.808;9.222;2022-09-23T00:06:59;12.90;1.00
702;DHT22;334;48.808;9.222;2022-09-23T00:08:05;12.70;1.00
702;DHT22;334;48.808;9.222;2022-09-23T00:09:07;12.70;1.00
702;DHT22;334;48.808;9.222;2022-09-23T00:10:10;12.60;1.00
702;DHT22;334;48.808;9.222;2022-09-23T00:11:15;12.70;1.00
702;DHT22;334;48.808;9.222;2022-09-23T00:12:19;12.60;1.00
702;DHT22;334;48.808;9.222;2022-09-23T00:13:23;12.60;1.00
702;DHT22;334;48.808;9.222;2022-09-23T00:14:26;12.60;1.00
702;DHT22;334;48.808;9.222;2022-09-23T00:15:28;12.60;1.00
702;DHT22;334;48.808;9.222;2022-09-23T00:16:33;12.60;1.00
702;DHT22;334;48.808;9.222;2022-09-23T00:17:35;12.60;1.00
702;DHT22;334;48.808;9.222;2022-09-23T00:18:37;12.60;1.00
702;DHT22;334;48.808;9.222;2022-09-23T00:19:39;12.60;1.00
702;DHT22;334;48.808;9.222;2022-09-23T00:20:41;12.60;1.00
702;DHT22;334;48.808;9.222;2022-09-23T00:21:43;12.60;1.00
702;DHT22;334;48.808;9.222;2022-09-23T00:22:45;12.60;1.00
702;DHT22;334;48.808;9.222;2022-09-23T00:23:47;12.60;1.00
702;DHT22;334;48.808;9.222;2022-09-23T00:24:50;12.60;1.00
702;DHT22;334;48.808;9.222;2022-09-23T00:25:56;12.60;1.00
702;DHT22;334;48.808;9.222;2022-09-23T00:26:59;12.60;1.00
702;DHT22;334;48.808;9.222;2022-09-23T00:28:01;12.60;1.00
702;DHT22;334;48.808;9.222;2022-09-23T00:29:03;12.50;1.00
702;DHT22;334;48.808;9.222;2022-09-23T00:30:07;12.50;1.00
702;DHT22;334;48.808;9.222;2022-09-23T00:31:35;12.50;1.00
702;DHT22;334;48.808;9.222;2022-09-23T00:32:37;12.50;1.00
702;DHT22;334;48.808;9.222;2022-09-23T00:33:39;12.50;1.00
702;DHT22;334;48.808;9.222;2022-09-23T00:34:43;12.50;1.00
702;DHT22;334;48.808;9.222;2022-09-23T00:35:45;12.50;1.00
702;DHT22;334;48.808;9.222;2022-09-23T00:36:49;12.50;1.00
702;DHT22;334;48.808;9.222;2022-09-23T00:37:51;12.50;1.00
702;DHT22;334;48.808;9.222;2022-09-23T00:38:53;12.40;1.00
702;DHT22;334;48.808;9.222;2022-09-23T00:39:55;12.30;1.00
702;DHT22;334;48.808;9.222;2022-09-23T00:40:58;12.40;1.00
702;DHT22;334;48.808;9.222;2022-09-23T00:42:00;12.40;1.00
702;DHT22;334;48.808;9.222;2022-09-23T00:43:02;12.30;1.00
702;DHT22;334;48.808;9.222;2022-09-23T00:45:44;12.30;1.00
702;DHT22;334;48.808;9.222;2022-09-23T00:46:47;12.40;1.00
702;DHT22;334;48.808;9.222;2022-09-23T00:47:53;12.40;1.00
702;DHT22;334;48.808;9.222;2022-09-23T00:49:02;12.40;1.00
702;DHT22;334;48.808;9.222;2022-09-23T00:50:21;12.30;1.00
702;DHT22;334;48.808;9.222;2022-09-23T00:51:31;12.30;1.00
702;DHT22;334;48.808;9.222;2022-09-23T00:52:34;12.30;1.00
702;DHT22;334;48.808;9.222;2022-09-23T00:53:37;12.50;1.00
702;DHT22;334;48.808;9.222;2022-09-23T00:54:41;12.30;1.00
702;DHT22;334;48.808;9.222;2022-09-23T00:55:49;12.30;1.00
702;DHT22;334;48.808;9.222;2022-09-23T00:56:54;12.30;1.00
702;DHT22;334;48.808;9.222;2022-09-23T00:57:58;12.30;1.00
702;DHT22;334;48.808;9.222;2022-09-23T00:59:02;12.30;1.00
702;DHT22;334;48.808;9.222;2022-09-23T01:00:06;12.30;1.00
702;DHT22;334;48.808;9.222;2022-09-23T01:01:09;12.30;1.00
702;DHT22;334;48.808;9.222;2022-09-23T01:02:13;12.30;1.00
702;DHT22;334;48.808;9.222;2022-09-23T01:03:18;12.30;1.00
702;DHT22;334;48.808;9.222;2022-09-23T01:04:23;12.30;1.00
702;DHT22;334;48.808;9.222;2022-09-23T01:05:27;12.20;1.00
702;DHT22;334;48.808;9.222;2022-09-23T01:06:29;12.30;1.00
702;DHT22;334;48.808;9.222;2022-09-23T01:07:32;12.30;1.00
702;DHT22;334;48.808;9.222;2022-09-23T01:08:35;12.30;1.00
702;DHT22;334;48.808;9.222;2022-09-23T01:09:39;12.30;1.00
702;DHT22;334;48.808;9.222;2022-09-23T01:11:56;12.30;1.00
702;DHT22;334;48.808;9.222;2022-09-23T01:14:44;12.30;1.00
702;DHT22;334;48.808;9.222;2022-09-23T01:16:12;12.20;1.00
702;DHT22;334;48.808;9.222;2022-09-23T01:17:22;12.30;1.00
702;DHT22;334;48.808;9.222;2022-09-23T01:20:35;12.30;1.00
702;DHT22;334;48.808;9.222;2022-09-23T01:24:23;12.20;1.00
702;DHT22;334;48.808;9.222;2022-09-23T01:25:45;12.10;1.00
702;DHT22;334;48.808;9.222;2022-09-23T01:26:59;12.10;1.00
702;DHT22;334;48.808;9.222;2022-09-23T01:28:34;12.10;1.00
702;DHT22;334;48.808;9.222;2022-09-23T01:30:03;12.10;1.00
702;DHT22;334;48.808;9.222;2022-09-23T01:31:20;12.10;1.00
702;DHT22;334;48.808;9.222;2022-09-23T01:33:55;12.00;1.00
702;DHT22;334;48.808;9.222;2022-09-23T01:35:14;12.00;1.00
702;DHT22;334;48.808;9.222;2022-09-23T01:37:44;12.00;1.00
702;DHT22;334;48.808;9.222;2022-09-23T01:39:02;12.00;1.00
702;DHT22;334;48.808;9.222;2022-09-23T01:41:54;12.00;1.00
702;DHT22;334;48.808;9.222;2022-09-23T01:43:15;12.00;1.00
702;DHT22;334;48.808;9.222;2022-09-23T01:44:50;11.90;1.00
702;DHT22;334;48.808;9.222;2022-09-23T01:45:57;12.00;1.00
702;DHT22;334;48.808;9.222;2022-09-23T01:47:09;11.90;1.00
702;DHT22;334;48.808;9.222;2022-09-23T01:48:29;11.90;1.00
702;DHT22;334;48.808;9.222;2022-09-23T01:49:59;11.90;1.00
702;DHT22;334;48.808;9.222;2022-09-23T01:51:15;11.90;1.00
702;DHT22;334;48.808;9.222;2022-09-23T01:52:39;11.90;1.00
702;DHT22;334;48.808;9.222;2022-09-23T01:55:20;11.80;1.00
702;DHT22;334;48.808;9.222;2022-09-23T01:56:34;11.80;1.00
702;DHT22;334;48.808;9.222;2022-09-23T01:57:53;11.80;1.00
702;DHT22;334;48.808;9.222;2022-09-23T01:59:24;11.80;1.00
702;DHT22;334;48.808;9.222;2022-09-23T02:00:33;11.80;1.30
702;DHT22;334;48.808;9.222;2022-09-23T02:01:40;11.70;1.00
702;DHT22;334;48.808;9.222;2022-09-23T02:03:06;11.70;1.00
702;DHT22;334;48.808;9.222;2022-09-23T02:04:37;11.70;1.50
702;DHT22;334;48.808;9.222;2022-09-23T02:05:48;11.80;1.80
702;DHT22;334;48.808;9.222;2022-09-23T02:06:55;11.80;1.10
702;DHT22;334;48.808;9.222;2022-09-23T02:08:05;11.70;1.00
702;DHT22;334;48.808;9.222;2022-09-23T02:09:14;11.70;1.00
702;DHT22;334;48.808;9.222;2022-09-23T02:10:42;11.70;1.20
702;DHT22;334;48.808;9.222;2022-09-23T02:11:47;11.80;1.50
702;DHT22;334;48.808;9.222;2022-09-23T02:12:51;11.80;1.00
702;DHT22;334;48.808;9.222;2022-09-23T02:14:04;11.70;1.00
702;DHT22;334;48.808;9.222;2022-09-23T02:15:14;11.80;1.40
702;DHT22;334;48.808;9.222;2022-09-23T02:16:29;11.80;1.00
702;DHT22;334;48.808;9.222;2022-09-23T02:17:48;11.80;1.00
702;DHT22;334;48.808;9.222;2022-09-23T02:19:07;11.80;1.00
702;DHT22;334;48.808;9.222;2022-09-23T02:20:16;11.80;1.00
702;DHT22;334;48.808;9.222;2022-09-23T02:21:23;11.90;1.00
702;DHT22;334;48.808;9.222;2022-09-23T02:22:33;11.80;1.00
702;DHT22;334;48.808;9.222;2022-09-23T02:23:44;11.80;1.00
702;DHT22;334;48.808;9.222;2022-09-23T02:24:49;11.80;1.00
702;DHT22;334;48.808;9.222;2022-09-23T02:26:07;11.80;1.00
702;DHT22;334;48.808;9.222;2022-09-23T02:28:54;11.70;1.00
702;DHT22;334;48.808;9.222;2022-09-23T02:31:48;11.70;1.00
702;DHT22;334;48.808;9.222;2022-09-23T02:34:18;11.80;1.00
702;DHT22;334;48.808;9.222;2022-09-23T02:35:47;11.70;1.00
702;DHT22;334;48.808;9.222;2022-09-23T02:37:23;11.70;1.00
702;DHT22;334;48.808;9.222;2022-09-23T02:39:37;11.70;1.00
702;DHT22;334;48.808;9.222;2022-09-23T02:40:56;11.60;1.00
702;DHT22;334;48.808;9.222;2022-09-23T02:42:05;11.60;1.00
702;DHT22;334;48.808;9.222;2022-09-23T02:43:33;11.60;1.00
702;DHT22;334;48.808;9.222;2022-09-23T02:44:36;11.60;1.10
702;DHT22;334;48.808;9.222;2022-09-23T02:45:38;11.50;1.30
702;DHT22;334;48.808;9.222;2022-09-23T02:46:41;11.50;1.20
702;DHT22;334;48.808;9.222;2022-09-23T02:47:52;11.50;1.30
702;DHT22;334;48.808;9.222;2022-09-23T02:48:59;11.50;1.40
702;DHT22;334;48.808;9.222;2022-09-23T02:50:05;11.50;1.30
702;DHT22;334;48.808;9.222;2022-09-23T02:51:07;11.60;1.20
702;DHT22;334;48.808;9.222;2022-09-23T02:52:10;11.60;1.00
702;DHT22;334;48.808;9.222;2022-09-23T02:53:14;11.60;1.00
702;DHT22;334;48.808;9.222;2022-09-23T02:54:23;11.50;1.00
702;DHT22;334;48.808;9.222;2022-09-23T02:55:29;11.50;1.00
702;DHT22;334;48.808;9.222;2022-09-23T02:56:35;11.50;1.20
702;DHT22;334;48.808;9.222;2022-09-23T02:57:39;11.50;1.10
702;DHT22;334;48.808;9.222;2022-09-23T02:58:41;11.60;1.10
702;DHT22;334;48.808;9.222;2022-09-23T02:59:43;11.60;1.00
702;DHT22;334;48.808;9.222;2022-09-23T03:04:55;11.50;1.30
702;DHT22;334;48.808;9.222;2022-09-23T03:06:02;11.50;1.50
702;DHT22;334;48.808;9.222;2022-09-23T03:08:50;11.50;1.50
702;DHT22;334;48.808;9.222;2022-09-23T03:10:06;11.50;1.50
702;DHT22;334;48.808;9.222;2022-09-23T03:11:11;11.50;1.10
702;DHT22;334;48.808;9.222;2022-09-23T03:12:39;11.50;1.00
702;DHT22;334;48.808;9.222;2022-09-23T03:15:04;11.50;1.00
702;DHT22;334;48.808;9.222;2022-09-23T03:16:33;11.50;1.20
702;DHT22;334;48.808;9.222;2022-09-23T03:19:35;11.50;1.30
702;DHT22;334;48.808;9.222;2022-09-23T03:20:52;11.50;1.10
702;DHT22;334;48.808;9.222;2022-09-23T03:22:32;11.50;1.20
702;DHT22;334;48.808;9.222;2022-09-23T03:23:39;11.50;1.00
702;DHT22;334;48.808;9.222;2022-09-23T03:24:44;11.50;1.00
702;DHT22;334;48.808;9.222;2022-09-23T03:25:54;11.40;1.00
702;DHT22;334;48.808;9.222;2022-09-23T03:27:00;11.40;1.00
702;DHT22;334;48.808;9.222;2022-09-23T03:28:08;11.40;1.00
702;DHT22;334;48.808;9.222;2022-09-23T03:29:13;11.50;1.00
702;DHT22;334;48.808;9.222;2022-09-23T03:30:19;11.50;1.00
702;DHT22;334;48.808;9.222;2022-09-23T03:31:27;11.50;1.00
702;DHT22;334;48.808;9.222;2022-09-23T03:32:32;11.50;1.00
702;DHT22;334;48.808;9.222;2022-09-23T03:33:36;11.50;1.00
702;DHT22;334;48.808;9.222;2022-09-23T03:34:40;11.50;1.00
702;DHT22;334;48.808;9.222;2022-09-23T03:35:56;11.50;1.00
702;DHT22;334;48.808;9.222;2022-09-23T03:38:25;11.50;1.00
702;DHT22;334;48.808;9.222;2022-09-23T03:39:53;11.50;1.00
702;DHT22;334;48.808;9.222;2022-09-23T03:40:58;11.50;1.00
702;DHT22;334;48.808;9.222;2022-09-23T03:42:12;11.60;1.00
702;DHT22;334;48.808;9.222;2022-09-23T03:43:17;11.50;1.00
702;DHT22;334;48.808;9.222;2022-09-23T03:44:19;11.60;1.00
702;DHT22;334;48.808;9.222;2022-09-23T03:45:28;11.60;1.00
702;DHT22;334;48.808;9.222;2022-09-23T03:46:31;11.60;1.00
702;DHT22;334;48.808;9.222;2022-09-23T03:47:35;11.60;1.00
702;DHT22;334;48.808;9.222;2022-09-23T03:48:40;11.60;1.00
702;DHT22;334;48.808;9.222;2022-09-23T03:49:45;11.60;1.00
702;DHT22;334;48.808;9.222;2022-09-23T03:50:50;11.60;1.00
702;DHT22;334;48.808;9.222;2022-09-23T03:51:54;11.60;1.00
702;DHT22;334;48.808;9.222;2022-09-23T03:52:56;11.60;1.00
702;DHT22;334;48.808;9.222;2022-09-23T03:53:58;11.60;1.00
702;DHT22;334;48.808;9.222;2022-09-23T03:55:00;11.60;1.00
702;DHT22;334;48.808;9.222;2022-09-23T03:56:02;11.60;1.00
702;DHT22;334;48.808;9.222;2022-09-23T03:57:05;11.60;1.00
702;DHT22;334;48.808;9.222;2022-09-23T03:58:07;11.60;1.00
702;DHT22;334;48.808;9.222;2022-09-23T03:59:09;11.60;1.00
702;DHT22;334;48.808;9.222;2022-09-23T04:00:12;11.60;1.00
702;DHT22;334;48.808;9.222;2022-09-23T04:01:16;11.60;1.00
702;DHT22;334;48.808;9.222;2022-09-23T04:02:19;11.70;1.00
702;DHT22;334;48.808;9.222;2022-09-23T04:03:22;11.70;1.00
702;DHT22;334;48.808;9.222;2022-09-23T04:04:26;11.70;1.00
702;DHT22;334;48.808;9.222;2022-09-23T04:05:28;11.70;1.00
702;DHT22;334;48.808;9.222;2022-09-23T04:06:33;11.70;1.00
702;DHT22;334;48.808;9.222;2022-09-23T04:07:36;11.70;1.00
702;DHT22;334;48.808;9.222;2022-09-23T04:08:38;11.70;1.00
702;DHT22;334;48.808;9.222;2022-09-23T04:09:40;11.70;1.00
702;DHT22;334;48.808;9.222;2022-09-23T04:10:42;11.60;1.00
702;DHT22;334;48.808;9.222;2022-09-23T04:11:46;11.70;1.00
702;DHT22;334;48.808;9.222;2022-09-23T04:12:49;11.70;1.00
702;DHT22;334;48.808;9.222;2022-09-23T04:13:51;11.70;1.00
702;DHT22;334;48.808;9.222;2022-09-23T04:14:53;11.70;1.00
702;DHT22;334;48.808;9.222;2022-09-23T04:15:56;11.70;1.00
702;DHT22;334;48.808;9.222;2022-09-23T04:16:59;11.70;1.00
702;DHT22;334;48.808;9.222;2022-09-23T04:18:01;11.70;1.00
702;DHT22;334;48.808;9.222;2022-09-23T04:19:02;11.70;1.00
702;DHT22;334;48.808;9.222;2022-09-23T04:20:05;11.60;1.00
702;DHT22;334;48.808;9.222;2022-09-23T04:21:07;11.70;1.00
702;DHT22;334;48.808;9.222;2022-09-23T04:22:09;11.60;1.00
702;DHT22;334;48.808;9.222;2022-09-23T04:23:11;11.60;1.00
702;DHT22;334;48.808;9.222;2022-09-23T04:24:13;11.60;1.00
702;DHT22;334;48.808;9.222;2022-09-23T04:25:15;11.60;1.00
702;DHT22;334;48.808;9.222;2022-09-23T04:26:17;11.60;1.00
702;DHT22;334;48.808;9.222;2022-09-23T04:27:21;11.50;1.00
702;DHT22;334;48.808;9.222;2022-09-23T04:28:23;11.60;1.00
702;DHT22;334;48.808;9.222;2022-09-23T04:29:25;11.60;1.00
702;DHT22;334;48.808;9.222;2022-09-23T04:30:27;11.60;1.00
702;DHT22;334;48.808;9.222;2022-09-23T04:31:29;11.60;1.00
702;DHT22;334;48.808;9.222;2022-09-23T04:32:31;11.60;1.00
702;DHT22;334;48.808;9.222;2022-09-23T04:33:33;11.60;1.00
702;DHT22;334;48.808;9.222;2022-09-23T04:34:38;11.60;1.00
702;DHT22;334;48.808;9.222;2022-09-23T04:35:40;11.60;1.00
702;DHT22;334;48.808;9.222;2022-09-23T04:36:44;11.60;1.00
702;DHT22;334;48.808;9.222;2022-09-23T04:37:47;11.60;1.00
702;DHT22;334;48.808;9.222;2022-09-23T04:38:49;11.60;1.00
702;DHT22;334;48.808;9.222;2022-09-23T04:39:51;11.60;1.00
702;DHT22;334;48.808;9.222;2022-09-23T04:40:53;11.60;1.00
702;DHT22;334;48.808;9.222;2022-09-23T04:41:55;11.60;1.00
702;DHT22;334;48.808;9.222;2022-09-23T04:42:56;11.60;1.00
702;DHT22;334;48.808;9.222;2022-09-23T04:43:58;11.60;1.00
702;DHT22;334;48.808;9.222;2022-09-23T04:45:02;11.60;1.00
702;DHT22;334;48.808;9.222;2022-09-23T04:46:07;11.60;1.00
702;DHT22;334;48.808;9.222;2022-09-23T04:47:10;11.60;1.00
702;DHT22;334;48.808;9.222;2022-09-23T04:48:11;11.60;1.00
702;DHT22;334;48.808;9.222;2022-09-23T04:49:14;11.70;1.00
702;DHT22;334;48.808;9.222;2022-09-23T04:50:17;11.60;1.00
702;DHT22;334;48.808;9.222;2022-09-23T04:51:21;11.60;1.00
702;DHT22;334;48.808;9.222;2022-09-23T04:52:23;11.60;1.00
702;DHT22;334;48.808;9.222;2022-09-23T04:53:25;11.60;1.00
702;DHT22;334;48.808;9.222;2022-09-23T04:54:27;11.60;1.00
702;DHT22;334;48.808;9.222;2022-09-23T04:55:30;11.60;1.00
702;DHT22;334;48.808;9.222;2022-09-23T04:56:34;11.60;1.00
702;DHT22;334;48.808;9.222;2022-09-23T04:57:39;11.60;1.00
702;DHT22;334;48.808;9.222;2022-09-23T04:58:41;11.60;1.00
702;DHT22;334;48.808;9.222;2022-09-23T04:59:44;11.60;1.00
702;DHT22;334;48.808;9.222;2022-09-23T05:00:48;11.60;1.00
702;DHT22;334;48.808;9.222;2022-09-23T05:01:50;11.60;1.00
702;DHT22;334;48.808;9.222;2022-09-23T05:02:55;11.60;1.00
702;DHT22;334;48.808;9.222;2022-09-23T05:03:59;11.60;1.00
702;DHT22;334;48.808;9.222;2022-09-23T05:05:11;11.60;1.00
702;DHT22;334;48.808;9.222;2022-09-23T05:06:13;11.60;1.00
702;DHT22;334;48.808;9.222;2022-09-23T05:07:16;11.70;1.00
702;DHT22;334;48.808;9.222;2022-09-23T05:08:20;11.50;1.00
702;DHT22;334;48.808;9.222;2022-09-23T05:09:22;11.50;1.00
702;DHT22;334;48.808;9.222;2022-09-23T05:10:25;11.50;1.00
702;DHT22;334;48.808;9.222;2022-09-23T05:11:29;11.50;1.00
702;DHT22;334;48.808;9.222;2022-09-23T05:12:34;11.50;1.00
702;DHT22;334;48.808;9.222;2022-09-23T05:13:36;11.40;1.00
702;DHT22;334;48.808;9.222;2022-09-23T05:14:38;11.40;1.00
702;DHT22;334;48.808;9.222;2022-09-23T05:15:40;11.40;1.00
702;DHT22;334;48.808;9.222;2022-09-23T05:16:44;11.40;1.00
702;DHT22;334;48.808;9.222;2022-09-23T05:17:45;11.40;1.00
702;DHT22;334;48.808;9.222;2022-09-23T05:18:48;11.40;1.00
702;DHT22;334;48.808;9.222;2022-09-23T05:19:50;11.40;1.00
702;DHT22;334;48.808;9.222;2022-09-23T05:20:53;11.40;1.00
702;DHT22;334;48.808;9.222;2022-09-23T05:21:55;11.30;1.00
702;DHT22;334;48.808;9.222;2022-09-23T05:22:57;11.30;1.00
702;DHT22;334;48.808;9.222;2022-09-23T05:24:00;11.30;1.00
702;DHT22;334;48.808;9.222;2022-09-23T05:25:02;11.20;1.00
702;DHT22;334;48.808;9.222;2022-09-23T05:26:07;11.30;1.00
702;DHT22;334;48.808;9.222;2022-09-23T05:27:09;11.20;1.00
702;DHT22;334;48.808;9.222;2022-09-23T05:28:11;11.20;1.00
702;DHT22;334;48.808;9.222;2022-09-23T05:29:12;11.20;1.00
702;DHT22;334;48.808;9.222;2022-09-23T05:30:14;11.20;1.00
702;DHT22;334;48.808;9.222;2022-09-23T05:31:18;11.20;1.00
702;DHT22;334;48.808;9.222;2022-09-23T05:32:21;11.20;1.00
702;DHT22;334;48.808;9.222;2022-09-23T05:33:24;11.10;1.00
702;DHT22;334;48.808;9.222;2022-09-23T05:34:27;11.10;1.00
702;DHT22;334;48.808;9.222;2022-09-23T05:35:29;11.10;1.00
702;DHT22;334;48.808;9.222;2022-09-23T05:36:34;11.30;1.00
702;DHT22;334;48.808;9.222;2022-09-23T05:37:39;11.00;1.00
702;DHT22;334;48.808;9.222;2022-09-23T05:38:41;11.20;1.00
702;DHT22;334;48.808;9.222;2022-09-23T05:39:43;11.20;1.00
702;DHT22;334;48.808;9.222;2022-09-23T05:40:44;11.20;1.00
702;DHT22;334;48.808;9.222;2022-09-23T05:41:47;11.10;1.00
702;DHT22;334;48.808;9.222;2022-09-23T05:42:49;11.10;1.00
702;DHT22;334;48.808;9.222;2022-09-23T05:43:53;11.20;1.00
702;DHT22;334;48.808;9.222;2022-09-23T05:44:55;11.20;1.00
702;DHT22;334;48.808;9.222;2022-09-23T05:46:11;11.20;1.00
702;DHT22;334;48.808;9.222;2022-09-23T05:47:13;11.30;1.00
702;DHT22;334;48.808;9.222;2022-09-23T05:48:17;11.30;1.00
702;DHT22;334;48.808;9.222;2022-09-23T05:49:19;11.30;1.00
702;DHT22;334;48.808;9.222;2022-09-23T05:50:21;11.30;1.00
702;DHT22;334;48.808;9.222;2022-09-23T05:51:24;11.30;1.00
702;DHT22;334;48.808;9.222;2022-09-23T05:52:31;11.30;1.00
702;DHT22;334;48.808;9.222;2022-09-23T05:53:35;11.40;1.00
702;DHT22;334;48.808;9.222;2022-09-23T05:54:37;11.40;1.00
702;DHT22;334;48.808;9.222;2022-09-23T05:55:39;11.40;1.00
702;DHT22;334;48.808;9.222;2022-09-23T05:56:41;11.40;1.00
702;DHT22;334;48.808;9.222;2022-09-23T05:57:42;11.40;1.00
702;DHT22;334;48.808;9.222;2022-09-23T05:58:44;11.50;1.00
702;DHT22;334;48.808;9.222;2022-09-23T05:59:48;11.50;1.00
702;DHT22;334;48.808;9.222;2022-09-23T06:00:50;11.50;1.00
702;DHT22;334;48.808;9.222;2022-09-23T06:01:52;11.50;1.00
702;DHT22;334;48.808;9.222;2022-09-23T06:02:57;11.50;1.00
702;DHT22;334;48.808;9.222;2022-09-23T06:04:00;11.40;1.00
702;DHT22;334;48.808;9.222;2022-09-23T06:05:02;11.40;1.00
702;DHT22;334;48.808;9.222;2022-09-23T06:06:05;11.30;1.00
702;DHT22;334;48.808;9.222;2022-09-23T06:07:07;11.30;1.00
702;DHT22;334;48.808;9.222;2022-09-23T06:08:11;11.30;1.00
702;DHT22;334;48.808;9.222;2022-09-23T06:09:14;11.30;1.00
702;DHT22;334;48.808;9.222;2022-09-23T06:10:16;11.30;1.00
702;DHT22;334;48.808;9.222;2022-09-23T06:11:18;11.30;1.00
702;DHT22;334;48.808;9.222;2022-09-23T06:12:22;11.30;1.00
702;DHT22;334;48.808;9.222;2022-09-23T06:13:25;11.30;1.00
702;DHT22;334;48.808;9.222;2022-09-23T06:14:28;11.30;1.00
702;DHT22;334;48.808;9.222;2022-09-23T06:15:29;11.30;1.00
702;DHT22;334;48.808;9.222;2022-09-23T06:16:33;11.30;1.00
702;DHT22;334;48.808;9.222;2022-09-23T06:17:35;11.30;1.00
702;DHT22;334;48.808;9.222;2022-09-23T06:18:38;11.40;1.00
702;DHT22;334;48.808;9.222;2022-09-23T06:19:40;11.40;1.00
702;DHT22;334;48.808;9.222;2022-09-23T06:20:42;11.40;1.00
702;DHT22;334;48.808;9.222;2022-09-23T06:21:44;11.40;1.00
702;DHT22;334;48.808;9.222;2022-09-23T06:22:46;11.50;1.00
702;DHT22;334;48.808;9.222;2022-09-23T06:23:53;11.50;1.00
702;DHT22;334;48.808;9.222;2022-09-23T06:24:57;11.50;1.00
702;DHT22;334;48.808;9.222;2022-09-23T06:26:00;11.50;1.00
702;DHT22;334;48.808;9.222;2022-09-23T06:27:02;11.50;1.00
702;DHT22;334;48.808;9.222;2022-09-23T06:28:04;11.50;1.00
702;DHT22;334;48.808;9.222;2022-09-23T06:29:10;11.50;1.00
702;DHT22;334;48.808;9.222;2022-09-23T06:30:12;11.50;1.00
702;DHT22;334;48.808;9.222;2022-09-23T06:31:15;11.40;1.00
702;DHT22;334;48.808;9.222;2022-09-23T06:32:20;11.50;1.00
702;DHT22;334;48.808;9.222;2022-09-23T06:33:21;11.50;1.00
702;DHT22;334;48.808;9.222;2022-09-23T06:34:37;11.50;1.00
702;DHT22;334;48.808;9.222;2022-09-23T06:35:56;11.50;1.00
702;DHT22;334;48.808;9.222;2022-09-23T06:37:00;11.50;1.00
702;DHT22;334;48.808;9.222;2022-09-23T06:38:17;11.50;1.00
702;DHT22;334;48.808;9.222;2022-09-23T06:39:19;11.50;1.00
702;DHT22;334;48.808;9.222;2022-09-23T06:40:21;11.50;1.00
702;DHT22;334;48.808;9.222;2022-09-23T06:41:23;11.50;1.00
702;DHT22;334;48.808;9.222;2022-09-23T06:42:27;11.50;1.00
702;DHT22;334;48.808;9.222;2022-09-23T06:43:29;11.50;1.00
702;DHT22;334;48.808;9.222;2022-09-23T06:44:31;11.50;1.00
702;DHT22;334;48.808;9.222;2022-09-23T06:45:33;11.50;1.00
702;DHT22;334;48.808;9.222;2022-09-23T06:46:34;11.50;1.00
702;DHT22;334;48.808;9.222;2022-09-23T06:47:38;11.50;1.00
702;DHT22;334;48.808;9.222;2022-09-23T06:48:40;11.50;1.00
702;DHT22;334;48.808;9.222;2022-09-23T06:49:46;11.60;1.00
702;DHT22;334;48.808;9.222;2022-09-23T06:50:49;11.50;1.00
702;DHT22;334;48.808;9.222;2022-09-23T06:51:54;11.60;1.00
702;DHT22;334;48.808;9.222;2022-09-23T06:52:56;11.60;1.00
702;DHT22;334;48.808;9.222;2022-09-23T06:54:00;11.60;1.00
702;DHT22;334;48.808;9.222;2022-09-23T06:55:02;11.60;1.00
702;DHT22;334;48.808;9.222;2022-09-23T06:56:06;11.70;1.00
702;DHT22;334;48.808;9.222;2022-09-23T06:57:08;11.80;1.00
702;DHT22;334;48.808;9.222;2022-09-23T06:58:10;11.80;1.00
702;DHT22;334;48.808;9.222;2022-09-23T06:59:13;11.80;1.00
702;DHT22;334;48.808;9.222;2022-09-23T07:00:20;11.90;1.00
702;DHT22;334;48.808;9.222;2022-09-23T07:01:22;11.90;1.00
702;DHT22;334;48.808;9.222;2022-09-23T07:02:25;11.90;1.00
702;DHT22;334;48.808;9.222;2022-09-23T07:03:29;12.00;1.00
702;DHT22;334;48.808;9.222;2022-09-23T07:04:32;12.00;1.00
702;DHT22;334;48.808;9.222;2022-09-23T07:05:34;12.10;1.00
702;DHT22;334;48.808;9.222;2022-09-23T07:06:36;12.10;1.00
702;DHT22;334;48.808;9.222;2022-09-23T07:07:38;12.20;1.00
702;DHT22;334;48.808;9.222;2022-09-23T07:08:44;12.20;1.00
702;DHT22;334;48.808;9.222;2022-09-23T07:09:48;12.20;1.00
702;DHT22;334;48.808;9.222;2022-09-23T07:10:54;12.20;1.00
702;DHT22;334;48.808;9.222;2022-09-23T07:11:57;12.20;1.00
702;DHT22;334;48.808;9.222;2022-09-23T07:13:01;12.30;1.00
702;DHT22;334;48.808;9.222;2022-09-23T07:14:03;12.30;1.00
702;DHT22;334;48.808;9.222;2022-09-23T07:15:05;12.30;1.00
702;DHT22;334;48.808;9.222;2022-09-23T07:16:09;12.40;1.00
702;DHT22;334;48.808;9.222;2022-09-23T07:17:11;12.40;1.00
702;DHT22;334;48.808;9.222;2022-09-23T07:18:13;12.40;1.00
702;DHT22;334;48.808;9.222;2022-09-23T07:19:15;12.40;1.00
702;DHT22;334;48.808;9.222;2022-09-23T07:20:17;12.40;1.00
702;DHT22;334;48.808;9.222;2022-09-23T07:21:19;12.40;1.00
702;DHT22;334;48.808;9.222;2022-09-23T07:22:22;12.40;1.00
702;DHT22;334;48.808;9.222;2022-09-23T07:23:25;12.40;1.00
702;DHT22;334;48.808;9.222;2022-09-23T07:24:27;12.40;1.00
702;DHT22;334;48.808;9.222;2022-09-23T07:25:29;12.50;1.00
702;DHT22;334;48.808;9.222;2022-09-23T07:26:34;12.50;1.00
702;DHT22;334;48.808;9.222;2022-09-23T07:27:36;12.50;1.00
702;DHT22;334;48.808;9.222;2022-09-23T07:28:38;12.60;1.00
702;DHT22;334;48.808;9.222;2022-09-23T07:29:42;12.60;1.00
702;DHT22;334;48.808;9.222;2022-09-23T07:30:49;12.60;1.00
702;DHT22;334;48.808;9.222;2022-09-23T07:32:00;12.60;1.00
702;DHT22;334;48.808;9.222;2022-09-23T07:33:13;12.70;1.00
702;DHT22;334;48.808;9.222;2022-09-23T07:34:32;12.70;1.00
702;DHT22;334;48.808;9.222;2022-09-23T07:35:38;12.70;1.00
702;DHT22;334;48.808;9.222;2022-09-23T07:36:40;12.80;1.00
702;DHT22;334;48.808;9.222;2022-09-23T07:37:41;12.80;1.00
702;DHT22;334;48.808;9.222;2022-09-23T07:38:44;12.90;1.00
702;DHT22;334;48.808;9.222;2022-09-23T07:39:46;13.00;1.00
702;DHT22;334;48.808;9.222;2022-09-23T07:40:48;13.00;1.00
702;DHT22;334;48.808;9.222;2022-09-23T07:41:50;13.00;1.00
702;DHT22;334;48.808;9.222;2022-09-23T07:42:52;13.10;1.00
702;DHT22;334;48.808;9.222;2022-09-23T07:43:57;13.10;1.00
702;DHT22;334;48.808;9.222;2022-09-23T07:45:01;13.20;1.00
702;DHT22;334;48.808;9.222;2022-09-23T07:46:05;13.30;1.00
702;DHT22;334;48.808;9.222;2022-09-23T07:47:09;13.30;1.00
702;DHT22;334;48.808;9.222;2022-09-23T07:48:10;13.30;1.00
702;DHT22;334;48.808;9.222;2022-09-23T07:49:12;13.30;1.00
702;DHT22;334;48.808;9.222;2022-09-23T07:50:14;13.40;1.00
702;DHT22;334;48.808;9.222;2022-09-23T07:51:23;13.40;1.00
702;DHT22;334;48.808;9.222;2022-09-23T07:52:25;13.50;1.00
702;DHT22;334;48.808;9.222;2022-09-23T07:53:27;13.60;1.00
702;DHT22;334;48.808;9.222;2022-09-23T07:54:30;13.60;1.00
702;DHT22;334;48.808;9.222;2022-09-23T07:55:33;13.60;1.00
702;DHT22;334;48.808;9.222;2022-09-23T07:56:36;13.70;1.00
702;DHT22;334;48.808;9.222;2022-09-23T07:57:38;13.70;1.00
702;DHT22;334;48.808;9.222;2022-09-23T07:58:40;13.80;1.00
702;DHT22;334;48.808;9.222;2022-09-23T07:59:42;13.80;1.00
702;DHT22;334;48.808;9.222;2022-09-23T08:00:44;13.80;1.00
702;DHT22;334;48.808;9.222;2022-09-23T08:01:48;13.90;1.00
702;DHT22;334;48.808;9.222;2022-09-23T08:02:51;13.90;1.00